sensor_id;sensor_type;location;lat;lon;timestamp;temperature;humidity
21762;DHT22;11203;50.870;20.682;2023-04-06T00:01:10;-1.90;99.90
21762;DHT22;11203;50.870;20.682;2023-04-06T00:03:37;-1.90;99.90
21762;DHT22;11203;50.870;20.682;2023-04-06T00:06:03;-2.00;99.90
21762;DHT22;11203;50.870;20.682;2023-04-06T00:08:30;-2.00;99.90
21762;DHT22;11203;50.870;20.682;2023-04-06T00:10:56;-2.00;99.90
21762;DHT22;11203;50.870;20.682;2023-04-06T00:13:22;-2.00;99.90
21762;DHT22;11203;50.870;20.682;2023-04-06T00:15:48;-2.00;99.90
21762;DHT22;11203;50.870;20.682;2023-04-06T00:18:14;-2.10;99.90
21762;DHT22;11203;50.870;20.682;2023-04-06T00:20:40;-1.20;99.90
21762;DHT22;11203;50.870;20.682;2023-04-06T00:23:06;-1.90;99.90
21762;DHT22;11203;50.870;20.682;2023-04-06T00:25:32;-1.90;99.90
21762;DHT22;11203;50.870;20.682;2023-04-06T00:27:59;-1.90;99.90
21762;DHT22;11203;50.870;20.682;2023-04-06T00:30:24;-1.90;99.90
21762;DHT22;11203;50.870;20.682;2023-04-06T00:32:51;-1.80;99.90
21762;DHT22;11203;50.870;20.682;2023-04-06T00:35:17;-1.70;99.90
21762;DHT22;11203;50.870;20.682;2023-04-06T00:37:45;-1.70;99.90
21762;DHT22;11203;50.870;20.682;2023-04-06T00:40:12;-1.70;99.90
21762;DHT22;11203;50.870;20.682;2023-04-06T00:42:38;-1.60;99.90
21762;DHT22;11203;50.870;20.682;2023-04-06T00:45:04;-1.60;99.90
21762;DHT22;11203;50.870;20.682;2023-04-06T00:47:31;-1.50;99.90
21762;DHT22;11203;50.870;20.682;2023-04-06T00:49:57;-1.50;99.90
21762;DHT22;11203;50.870;20.682;2023-04-06T00:52:23;-1.50;99.90
21762;DHT22;11203;50.870;20.682;2023-04-06T00:54:50;-1.50;99.90
21762;DHT22;11203;50.870;20.682;2023-04-06T00:57:17;-1.50;99.90
21762;DHT22;11203;50.870;20.682;2023-04-06T00:59:43;-1.50;99.90
21762;DHT22;11203;50.870;20.682;2023-04-06T01:02:10;-1.60;99.90
21762;DHT22;11203;50.870;20.682;2023-04-06T01:04:36;-1.60;99.90
21762;DHT22;11203;50.870;20.682;2023-04-06T01:07:03;-1.70;99.90
21762;DHT22;11203;50.870;20.682;2023-04-06T01:09:29;-1.60;99.90
21762;DHT22;11203;50.870;20.682;2023-04-06T01:11:59;-1.70;99.90
21762;DHT22;11203;50.870;20.682;2023-04-06T01:14:25;-1.60;99.90
21762;DHT22;11203;50.870;20.682;2023-04-06T01:16:52;-1.60;99.90
21762;DHT22;11203;50.870;20.682;2023-04-06T01:19:18;-1.60;99.90
21762;DHT22;11203;50.870;20.682;2023-04-06T01:21:44;-1.60;99.90
21762;DHT22;11203;50.870;20.682;2023-04-06T01:24:10;-1.60;99.90
21762;DHT22;11203;50.870;20.682;2023-04-06T01:26:37;-1.60;99.90
21762;DHT22;11203;50.870;20.682;2023-04-06T01:29:04;-1.60;99.90
21762;DHT22;11203;50.870;20.682;2023-04-06T01:31:30;-1.70;99.90
21762;DHT22;11203;50.870;20.682;2023-04-06T01:33:56;-1.70;99.90
21762;DHT22;11203;50.870;20.682;2023-04-06T01:36:22;-1.70;99.90
21762;DHT22;11203;50.870;20.682;2023-04-06T01:38:48;-1.70;99.90
21762;DHT22;11203;50.870;20.682;2023-04-06T01:41:15;-1.80;99.90
21762;DHT22;11203;50.870;20.682;2023-04-06T01:43:41;-1.80;99.90
21762;DHT22;11203;50.870;20.682;2023-04-06T01:46:07;-1.80;99.90
21762;DHT22;11203;50.870;20.682;2023-04-06T01:48:33;-2.00;99.90
21762;DHT22;11203;50.870;20.682;2023-04-06T01:51:00;-1.90;99.90
21762;DHT22;11203;50.870;20.682;2023-04-06T01:53:26;-1.90;99.90
21762;DHT22;11203;50.870;20.682;2023-04-06T01:55:53;-2.00;99.90
21762;DHT22;11203;50.870;20.682;2023-04-06T01:58:19;-2.00;99.90
21762;DHT22;11203;50.870;20.682;2023-04-06T02:00:45;-2.00;99.90
21762;DHT22;11203;50.870;20.682;2023-04-06T02:03:11;-2.10;99.90
21762;DHT22;11203;50.870;20.682;2023-04-06T02:05:38;-2.10;99.90
21762;DHT22;11203;50.870;20.682;2023-04-06T02:08:06;-2.10;99.90
21762;DHT22;11203;50.870;20.682;2023-04-06T02:10:34;-2.10;99.90
21762;DHT22;11203;50.870;20.682;2023-04-06T02:13:00;-2.10;99.90
21762;DHT22;11203;50.870;20.682;2023-04-06T02:15:27;-2.10;99.90
21762;DHT22;11203;50.870;20.682;2023-04-06T02:17:53;-2.10;99.90
21762;DHT22;11203;50.870;20.682;2023-04-06T02:20:19;-2.10;99.90
21762;DHT22;11203;50.870;20.682;2023-04-06T02:22:45;-2.20;99.90
21762;DHT22;11203;50.870;20.682;2023-04-06T02:25:11;-2.10;99.90
21762;DHT22;11203;50.870;20.682;2023-04-06T02:27:37;-2.10;99.90
21762;DHT22;11203;50.870;20.682;2023-04-06T02:30:04;-2.10;99.90
21762;DHT22;11203;50.870;20.682;2023-04-06T02:32:30;-2.10;99.90
21762;DHT22;11203;50.870;20.682;2023-04-06T02:34:56;-2.10;99.90
21762;DHT22;11203;50.870;20.682;2023-04-06T02:37:22;-2.10;99.90
21762;DHT22;11203;50.870;20.682;2023-04-06T02:39:51;-2.10;99.90
21762;DHT22;11203;50.870;20.682;2023-04-06T02:42:17;-2.10;99.90
21762;DHT22;11203;50.870;20.682;2023-04-06T02:44:43;-2.10;99.90
21762;DHT22;11203;50.870;20.682;2023-04-06T02:47:09;-2.00;99.90
21762;DHT22;11203;50.870;20.682;2023-04-06T02:49:36;-2.10;99.90
21762;DHT22;11203;50.870;20.682;2023-04-06T02:52:02;-2.10;99.90
21762;DHT22;11203;50.870;20.682;2023-04-06T02:54:29;-2.10;99.90
21762;DHT22;11203;50.870;20.682;2023-04-06T02:56:54;-2.10;99.90
21762;DHT22;11203;50.870;20.682;2023-04-06T02:59:21;-2.10;99.90
21762;DHT22;11203;50.870;20.682;2023-04-06T03:01:47;-2.10;99.90
21762;DHT22;11203;50.870;20.682;2023-04-06T03:04:13;-2.10;99.90
21762;DHT22;11203;50.870;20.682;2023-04-06T03:06:39;-2.00;99.90
21762;DHT22;11203;50.870;20.682;2023-04-06T03:09:06;-2.00;99.90
21762;DHT22;11203;50.870;20.682;2023-04-06T03:11:33;-1.90;99.90
21762;DHT22;11203;50.870;20.682;2023-04-06T03:13:59;-2.00;99.90
21762;DHT22;11203;50.870;20.682;2023-04-06T03:16:25;-2.00;99.90
21762;DHT22;11203;50.870;20.682;2023-04-06T03:18:51;-1.90;99.90
21762;DHT22;11203;50.870;20.682;2023-04-06T03:21:17;-1.90;99.90
21762;DHT22;11203;50.870;20.682;2023-04-06T03:23:45;-2.00;99.90
21762;DHT22;11203;50.870;20.682;2023-04-06T03:26:11;-1.90;99.90
21762;DHT22;11203;50.870;20.682;2023-04-06T03:28:37;-2.00;99.90
21762;DHT22;11203;50.870;20.682;2023-04-06T03:31:03;-2.00;99.90
21762;DHT22;11203;50.870;20.682;2023-04-06T03:33:30;-2.00;99.90
21762;DHT22;11203;50.870;20.682;2023-04-06T03:35:56;-1.90;99.90
21762;DHT22;11203;50.870;20.682;2023-04-06T03:38:25;-1.90;99.90
21762;DHT22;11203;50.870;20.682;2023-04-06T03:40:51;-1.80;99.90
21762;DHT22;11203;50.870;20.682;2023-04-06T03:43:17;-1.80;99.90
21762;DHT22;11203;50.870;20.682;2023-04-06T03:45:43;-1.70;99.90
21762;DHT22;11203;50.870;20.682;2023-04-06T03:48:09;-1.80;99.90
21762;DHT22;11203;50.870;20.682;2023-04-06T03:50:36;-1.80;99.90
21762;DHT22;11203;50.870;20.682;2023-04-06T03:53:02;-1.80;99.90
21762;DHT22;11203;50.870;20.682;2023-04-06T03:55:29;-1.80;99.90
21762;DHT22;11203;50.870;20.682;2023-04-06T03:57:55;-1.80;99.90
21762;DHT22;11203;50.870;20.682;2023-04-06T04:00:22;-1.70;99.90
21762;DHT22;11203;50.870;20.682;2023-04-06T04:02:48;-1.70;99.90
21762;DHT22;11203;50.870;20.682;2023-04-06T04:05:14;-1.70;99.90
21762;DHT22;11203;50.870;20.682;2023-04-06T04:07:40;-1.70;99.90
21762;DHT22;11203;50.870;20.682;2023-04-06T04:10:06;-1.80;99.90
21762;DHT22;11203;50.870;20.682;2023-04-06T04:12:33;-1.80;99.90
21762;DHT22;11203;50.870;20.682;2023-04-06T04:14:59;-1.80;99.90
21762;DHT22;11203;50.870;20.682;2023-04-06T04:17:25;-1.70;99.90
21762;DHT22;11203;50.870;20.682;2023-04-06T04:19:51;-1.70;99.90
21762;DHT22;11203;50.870;20.682;2023-04-06T04:22:17;-1.90;99.90
21762;DHT22;11203;50.870;20.682;2023-04-06T04:24:43;-1.80;99.90
21762;DHT22;11203;50.870;20.682;2023-04-06T04:27:09;-1.80;99.90
21762;DHT22;11203;50.870;20.682;2023-04-06T04:29:35;-1.90;99.90
21762;DHT22;11203;50.870;20.682;2023-04-06T04:32:01;-1.90;99.90
21762;DHT22;11203;50.870;20.682;2023-04-06T04:34:31;-1.90;99.90
21762;DHT22;11203;50.870;20.682;2023-04-06T04:36:58;-2.00;99.90
21762;DHT22;11203;50.870;20.682;2023-04-06T04:39:24;-1.80;99.90
21762;DHT22;11203;50.870;20.682;2023-04-06T04:41:51;-2.00;99.90
21762;DHT22;11203;50.870;20.682;2023-04-06T04:44:17;-1.90;99.90
21762;DHT22;11203;50.870;20.682;2023-04-06T04:46:43;-1.80;99.90
21762;DHT22;11203;50.870;20.682;2023-04-06T04:49:09;-1.90;99.90
21762;DHT22;11203;50.870;20.682;2023-04-06T04:51:35;-1.80;99.90
21762;DHT22;11203;50.870;20.682;2023-04-06T04:54:01;-1.90;99.90
21762;DHT22;11203;50.870;20.682;2023-04-06T04:56:28;-1.90;99.90
21762;DHT22;11203;50.870;20.682;2023-04-06T04:58:55;-1.80;99.90
21762;DHT22;11203;50.870;20.682;2023-04-06T05:01:21;-1.80;99.90
21762;DHT22;11203;50.870;20.682;2023-04-06T05:03:47;-1.80;99.90
21762;DHT22;11203;50.870;20.682;2023-04-06T05:06:13;-1.70;99.90
21762;DHT22;11203;50.870;20.682;2023-04-06T05:08:42;-1.70;99.90
21762;DHT22;11203;50.870;20.682;2023-04-06T05:11:09;-1.70;99.90
21762;DHT22;11203;50.870;20.682;2023-04-06T05:13:35;-1.60;99.90
21762;DHT22;11203;50.870;20.682;2023-04-06T05:16:01;-1.60;99.90
21762;DHT22;11203;50.870;20.682;2023-04-06T05:18:27;-1.50;99.90
21762;DHT22;11203;50.870;20.682;2023-04-06T05:20:53;-1.40;99.90
21762;DHT22;11203;50.870;20.682;2023-04-06T05:23:19;-1.40;99.90
21762;DHT22;11203;50.870;20.682;2023-04-06T05:25:46;-1.40;99.90
21762;DHT22;11203;50.870;20.682;2023-04-06T05:28:12;-1.20;99.90
21762;DHT22;11203;50.870;20.682;2023-04-06T05:30:40;-1.20;99.90
21762;DHT22;11203;50.870;20.682;2023-04-06T05:33:06;-1.10;99.90
21762;DHT22;11203;50.870;20.682;2023-04-06T05:35:32;-1.00;99.90
21762;DHT22;11203;50.870;20.682;2023-04-06T05:37:58;-0.90;99.90
21762;DHT22;11203;50.870;20.682;2023-04-06T05:40:25;-0.80;99.90
21762;DHT22;11203;50.870;20.682;2023-04-06T05:42:51;-0.70;99.90
21762;DHT22;11203;50.870;20.682;2023-04-06T05:45:17;-0.60;99.90
21762;DHT22;11203;50.870;20.682;2023-04-06T05:47:44;-0.60;99.90
21762;DHT22;11203;50.870;20.682;2023-04-06T05:50:12;-0.50;99.90
21762;DHT22;11203;50.870;20.682;2023-04-06T05:52:39;-0.40;99.90
21762;DHT22;11203;50.870;20.682;2023-04-06T05:55:09;-0.40;99.90
21762;DHT22;11203;50.870;20.682;2023-04-06T05:57:35;-0.40;99.90
21762;DHT22;11203;50.870;20.682;2023-04-06T06:00:02;-0.30;99.90
21762;DHT22;11203;50.870;20.682;2023-04-06T06:02:30;-0.20;99.90
21762;DHT22;11203;50.870;20.682;2023-04-06T06:04:58;-0.20;99.90
21762;DHT22;11203;50.870;20.682;2023-04-06T06:07:24;-0.10;99.90
21762;DHT22;11203;50.870;20.682;2023-04-06T06:09:51;-0.10;99.90
21762;DHT22;11203;50.870;20.682;2023-04-06T06:12:17;0.00;99.90
21762;DHT22;11203;50.870;20.682;2023-04-06T06:14:43;0.20;99.90
21762;DHT22;11203;50.870;20.682;2023-04-06T06:17:09;0.10;99.90
21762;DHT22;11203;50.870;20.682;2023-04-06T06:19:35;0.10;99.90
21762;DHT22;11203;50.870;20.682;2023-04-06T06:22:01;0.20;99.90
21762;DHT22;11203;50.870;20.682;2023-04-06T06:24:28;0.20;99.90
21762;DHT22;11203;50.870;20.682;2023-04-06T06:26:54;0.30;99.90
21762;DHT22;11203;50.870;20.682;2023-04-06T06:29:20;0.20;99.90
21762;DHT22;11203;50.870;20.682;2023-04-06T06:31:46;0.30;99.90
21762;DHT22;11203;50.870;20.682;2023-04-06T06:34:12;0.20;99.90
21762;DHT22;11203;50.870;20.682;2023-04-06T06:36:38;0.30;99.90
21762;DHT22;11203;50.870;20.682;2023-04-06T06:39:05;0.30;99.90
21762;DHT22;11203;50.870;20.682;2023-04-06T06:41:31;0.30;99.90
21762;DHT22;11203;50.870;20.682;2023-04-06T06:43:59;0.30;99.90
21762;DHT22;11203;50.870;20.682;2023-04-06T06:46:30;0.30;99.90
21762;DHT22;11203;50.870;20.682;2023-04-06T06:48:56;0.30;99.90
21762;DHT22;11203;50.870;20.682;2023-04-06T06:51:24;0.40;99.90
21762;DHT22;11203;50.870;20.682;2023-04-06T06:53:50;0.30;99.90
21762;DHT22;11203;50.870;20.682;2023-04-06T06:56:16;0.40;99.90
21762;DHT22;11203;50.870;20.682;2023-04-06T06:58:42;0.50;99.90
21762;DHT22;11203;50.870;20.682;2023-04-06T07:01:08;0.40;99.90
21762;DHT22;11203;50.870;20.682;2023-04-06T07:03:35;0.60;99.90
21762;DHT22;11203;50.870;20.682;2023-04-06T07:06:01;1.20;99.90
21762;DHT22;11203;50.870;20.682;2023-04-06T07:08:27;0.60;99.90
21762;DHT22;11203;50.870;20.682;2023-04-06T07:10:53;0.60;99.90
21762;DHT22;11203;50.870;20.682;2023-04-06T07:13:22;0.70;99.90
21762;DHT22;11203;50.870;20.682;2023-04-06T07:15:49;0.70;99.90
21762;DHT22;11203;50.870;20.682;2023-04-06T07:18:16;0.60;99.90
21762;DHT22;11203;50.870;20.682;2023-04-06T07:20:43;0.60;99.90
21762;DHT22;11203;50.870;20.682;2023-04-06T07:23:09;0.70;99.90
21762;DHT22;11203;50.870;20.682;2023-04-06T07:25:35;0.70;99.90
21762;DHT22;11203;50.870;20.682;2023-04-06T07:28:03;0.70;99.90
21762;DHT22;11203;50.870;20.682;2023-04-06T07:30:29;0.80;99.90
21762;DHT22;11203;50.870;20.682;2023-04-06T07:32:56;0.80;99.90
21762;DHT22;11203;50.870;20.682;2023-04-06T07:35:26;0.80;99.90
21762;DHT22;11203;50.870;20.682;2023-04-06T07:37:53;0.80;99.90
21762;DHT22;11203;50.870;20.682;2023-04-06T07:40:20;0.80;99.90
21762;DHT22;11203;50.870;20.682;2023-04-06T07:42:46;0.90;99.90
21762;DHT22;11203;50.870;20.682;2023-04-06T07:45:13;1.00;99.90
21762;DHT22;11203;50.870;20.682;2023-04-06T07:47:39;1.10;99.90
21762;DHT22;11203;50.870;20.682;2023-04-06T07:50:05;1.10;99.90
21762;DHT22;11203;50.870;20.682;2023-04-06T07:52:32;1.10;99.90
21762;DHT22;11203;50.870;20.682;2023-04-06T07:54:58;1.20;99.90
21762;DHT22;11203;50.870;20.682;2023-04-06T07:57:25;1.30;99.90
21762;DHT22;11203;50.870;20.682;2023-04-06T07:59:51;1.20;99.90
21762;DHT22;11203;50.870;20.682;2023-04-06T08:02:17;1.20;99.90
21762;DHT22;11203;50.870;20.682;2023-04-06T08:04:44;1.30;99.90
21762;DHT22;11203;50.870;20.682;2023-04-06T08:07:11;1.30;99.90
21762;DHT22;11203;50.870;20.682;2023-04-06T08:09:37;1.40;99.90
21762;DHT22;11203;50.870;20.682;2023-04-06T08:12:03;1.40;99.90
21762;DHT22;11203;50.870;20.682;2023-04-06T08:14:29;1.30;99.90
21762;DHT22;11203;50.870;20.682;2023-04-06T08:16:56;1.20;99.90
21762;DHT22;11203;50.870;20.682;2023-04-06T08:19:21;1.10;99.90
21762;DHT22;11203;50.870;20.682;2023-04-06T08:21:48;1.10;99.90
21762;DHT22;11203;50.870;20.682;2023-04-06T08:24:14;1.10;99.90
21762;DHT22;11203;50.870;20.682;2023-04-06T08:26:40;1.10;99.90
21762;DHT22;11203;50.870;20.682;2023-04-06T08:29:06;1.10;99.90
21762;DHT22;11203;50.870;20.682;2023-04-06T08:31:34;1.00;99.90
21762;DHT22;11203;50.870;20.682;2023-04-06T08:34:01;0.90;99.90
21762;DHT22;11203;50.870;20.682;2023-04-06T08:36:29;0.90;99.90
21762;DHT22;11203;50.870;20.682;2023-04-06T08:38:55;0.90;99.90
21762;DHT22;11203;50.870;20.682;2023-04-06T08:41:21;0.90;99.90
21762;DHT22;11203;50.870;20.682;2023-04-06T08:43:49;0.90;99.90
21762;DHT22;11203;50.870;20.682;2023-04-06T08:46:21;0.90;99.90
21762;DHT22;11203;50.870;20.682;2023-04-06T08:48:47;0.80;99.90
21762;DHT22;11203;50.870;20.682;2023-04-06T08:51:17;0.80;99.90
21762;DHT22;11203;50.870;20.682;2023-04-06T08:53:44;0.80;99.90
21762;DHT22;11203;50.870;20.682;2023-04-06T08:56:10;0.80;99.90
21762;DHT22;11203;50.870;20.682;2023-04-06T08:58:39;0.70;99.90
21762;DHT22;11203;50.870;20.682;2023-04-06T09:01:08;0.80;99.90
21762;DHT22;11203;50.870;20.682;2023-04-06T09:03:39;0.90;99.90
21762;DHT22;11203;50.870;20.682;2023-04-06T09:06:06;1.00;99.90
21762;DHT22;11203;50.870;20.682;2023-04-06T09:08:33;1.00;99.90
21762;DHT22;11203;50.870;20.682;2023-04-06T09:11:02;0.90;99.90
21762;DHT22;11203;50.870;20.682;2023-04-06T09:13:28;0.80;99.90
21762;DHT22;11203;50.870;20.682;2023-04-06T09:16:02;0.80;99.90
21762;DHT22;11203;50.870;20.682;2023-04-06T09:18:33;0.80;99.90
21762;DHT22;11203;50.870;20.682;2023-04-06T09:21:02;0.80;99.90
21762;DHT22;11203;50.870;20.682;2023-04-06T09:23:29;0.80;99.90
21762;DHT22;11203;50.870;20.682;2023-04-06T09:26:06;0.80;99.90
21762;DHT22;11203;50.870;20.682;2023-04-06T09:28:48;0.80;99.90
21762;DHT22;11203;50.870;20.682;2023-04-06T09:31:15;0.70;99.90
21762;DHT22;11203;50.870;20.682;2023-04-06T09:33:46;0.70;99.90
21762;DHT22;11203;50.870;20.682;2023-04-06T09:36:13;0.60;99.90
21762;DHT22;11203;50.870;20.682;2023-04-06T09:39:00;0.60;99.90
21762;DHT22;11203;50.870;20.682;2023-04-06T09:41:32;0.70;99.90
21762;DHT22;11203;50.870;20.682;2023-04-06T09:44:06;0.70;99.90
21762;DHT22;11203;50.870;20.682;2023-04-06T09:46:37;0.60;99.90
21762;DHT22;11203;50.870;20.682;2023-04-06T09:49:06;0.70;99.90
21762;DHT22;11203;50.870;20.682;2023-04-06T09:51:40;0.60;99.90
21762;DHT22;11203;50.870;20.682;2023-04-06T09:54:07;0.70;99.90
21762;DHT22;11203;50.870;20.682;2023-04-06T10:08:06;0.80;99.90
21762;DHT22;11203;50.870;20.682;2023-04-06T10:10:35;0.80;99.90
21762;DHT22;11203;50.870;20.682;2023-04-06T10:13:02;0.80;99.90
21762;DHT22;11203;50.870;20.682;2023-04-06T10:15:30;0.80;99.90
21762;DHT22;11203;50.870;20.682;2023-04-06T10:17:58;0.80;99.90
21762;DHT22;11203;50.870;20.682;2023-04-06T10:20:29;0.90;99.90
21762;DHT22;11203;50.870;20.682;2023-04-06T10:25:57;0.80;99.90
21762;DHT22;11203;50.870;20.682;2023-04-06T10:28:25;0.80;99.90
21762;DHT22;11203;50.870;20.682;2023-04-06T10:31:00;0.80;99.90
21762;DHT22;11203;50.870;20.682;2023-04-06T10:33:28;0.80;99.90
21762;DHT22;11203;50.870;20.682;2023-04-06T10:35:54;0.80;99.90
21762;DHT22;11203;50.870;20.682;2023-04-06T10:38:32;0.80;99.90
21762;DHT22;11203;50.870;20.682;2023-04-06T10:41:06;0.80;99.90
21762;DHT22;11203;50.870;20.682;2023-04-06T10:43:35;0.80;99.90
21762;DHT22;11203;50.870;20.682;2023-04-06T10:46:03;0.80;99.90
21762;DHT22;11203;50.870;20.682;2023-04-06T10:48:56;0.80;99.90
21762;DHT22;11203;50.870;20.682;2023-04-06T10:51:32;0.80;99.90
21762;DHT22;11203;50.870;20.682;2023-04-06T10:53:59;0.80;99.90
21762;DHT22;11203;50.870;20.682;2023-04-06T10:56:26;0.80;99.90
21762;DHT22;11203;50.870;20.682;2023-04-06T10:58:55;0.80;99.90
21762;DHT22;11203;50.870;20.682;2023-04-06T11:01:24;0.80;99.90
21762;DHT22;11203;50.870;20.682;2023-04-06T11:03:57;0.80;99.90
21762;DHT22;11203;50.870;20.682;2023-04-06T11:06:28;0.80;99.90
21762;DHT22;11203;50.870;20.682;2023-04-06T11:08:57;0.80;99.90
21762;DHT22;11203;50.870;20.682;2023-04-06T11:11:25;0.80;99.90
21762;DHT22;11203;50.870;20.682;2023-04-06T11:16:25;0.80;99.90
21762;DHT22;11203;50.870;20.682;2023-04-06T11:19:01;0.70;99.90
21762;DHT22;11203;50.870;20.682;2023-04-06T11:21:48;0.70;99.90
21762;DHT22;11203;50.870;20.682;2023-04-06T11:24:15;0.80;99.90
21762;DHT22;11203;50.870;20.682;2023-04-06T11:26:54;0.80;99.90
21762;DHT22;11203;50.870;20.682;2023-04-06T11:29:22;0.80;99.90
21762;DHT22;11203;50.870;20.682;2023-04-06T11:31:52;0.70;99.90
21762;DHT22;11203;50.870;20.682;2023-04-06T11:34:25;0.80;99.90
21762;DHT22;11203;50.870;20.682;2023-04-06T11:36:59;0.80;99.90
21762;DHT22;11203;50.870;20.682;2023-04-06T11:39:31;0.80;99.90
21762;DHT22;11203;50.870;20.682;2023-04-06T11:42:02;0.80;99.90
21762;DHT22;11203;50.870;20.682;2023-04-06T11:44:32;0.80;99.90
21762;DHT22;11203;50.870;20.682;2023-04-06T11:47:08;0.80;99.90
21762;DHT22;11203;50.870;20.682;2023-04-06T11:49:40;0.80;99.90
21762;DHT22;11203;50.870;20.682;2023-04-06T11:52:16;0.80;99.90
21762;DHT22;11203;50.870;20.682;2023-04-06T11:54:54;0.80;99.90
21762;DHT22;11203;50.870;20.682;2023-04-06T11:57:22;0.80;99.90
21762;DHT22;11203;50.870;20.682;2023-04-06T11:59:51;0.90;99.90
21762;DHT22;11203;50.870;20.682;2023-04-06T12:02:18;0.80;99.90
21762;DHT22;11203;50.870;20.682;2023-04-06T12:04:45;0.90;99.90
21762;DHT22;11203;50.870;20.682;2023-04-06T12:07:12;0.90;99.90
21762;DHT22;11203;50.870;20.682;2023-04-06T12:09:42;0.80;99.90
21762;DHT22;11203;50.870;20.682;2023-04-06T12:12:08;0.90;99.90
21762;DHT22;11203;50.870;20.682;2023-04-06T12:14:35;0.90;99.90
21762;DHT22;11203;50.870;20.682;2023-04-06T12:17:01;0.90;99.90
21762;DHT22;11203;50.870;20.682;2023-04-06T12:19:31;0.90;99.90
21762;DHT22;11203;50.870;20.682;2023-04-06T12:21:57;0.90;99.90
21762;DHT22;11203;50.870;20.682;2023-04-06T12:24:23;0.80;99.90
21762;DHT22;11203;50.870;20.682;2023-04-06T12:26:49;0.80;99.90
21762;DHT22;11203;50.870;20.682;2023-04-06T12:29:16;0.80;99.90
21762;DHT22;11203;50.870;20.682;2023-04-06T12:31:42;0.90;99.90
21762;DHT22;11203;50.870;20.682;2023-04-06T12:34:10;0.80;99.90
21762;DHT22;11203;50.870;20.682;2023-04-06T12:36:37;0.80;99.90
21762;DHT22;11203;50.870;20.682;2023-04-06T12:39:04;0.80;99.90
21762;DHT22;11203;50.870;20.682;2023-04-06T12:41:30;0.90;99.90
21762;DHT22;11203;50.870;20.682;2023-04-06T12:43:58;0.90;99.90
21762;DHT22;11203;50.870;20.682;2023-04-06T12:46:26;0.90;99.90
21762;DHT22;11203;50.870;20.682;2023-04-06T12:48:52;0.90;99.90
21762;DHT22;11203;50.870;20.682;2023-04-06T12:51:22;0.90;99.90
21762;DHT22;11203;50.870;20.682;2023-04-06T12:53:48;0.90;99.90
21762;DHT22;11203;50.870;20.682;2023-04-06T12:56:16;0.90;99.90
21762;DHT22;11203;50.870;20.682;2023-04-06T12:58:46;0.90;99.90
21762;DHT22;11203;50.870;20.682;2023-04-06T13:01:13;0.90;99.90
21762;DHT22;11203;50.870;20.682;2023-04-06T13:03:43;0.90;99.90
21762;DHT22;11203;50.870;20.682;2023-04-06T13:06:09;0.90;99.90
21762;DHT22;11203;50.870;20.682;2023-04-06T13:08:39;0.90;99.90
21762;DHT22;11203;50.870;20.682;2023-04-06T13:11:05;0.80;99.90
21762;DHT22;11203;50.870;20.682;2023-04-06T13:13:35;0.80;99.90
21762;DHT22;11203;50.870;20.682;2023-04-06T13:16:07;0.90;99.90
21762;DHT22;11203;50.870;20.682;2023-04-06T13:18:34;0.80;99.90
21762;DHT22;11203;50.870;20.682;2023-04-06T13:21:02;0.80;99.90
21762;DHT22;11203;50.870;20.682;2023-04-06T13:23:28;0.80;99.90
21762;DHT22;11203;50.870;20.682;2023-04-06T13:25:59;0.80;99.90
21762;DHT22;11203;50.870;20.682;2023-04-06T13:28:27;0.80;99.90
21762;DHT22;11203;50.870;20.682;2023-04-06T13:30:54;0.80;99.90
21762;DHT22;11203;50.870;20.682;2023-04-06T13:33:24;0.80;99.90
21762;DHT22;11203;50.870;20.682;2023-04-06T13:35:50;0.80;99.90
21762;DHT22;11203;50.870;20.682;2023-04-06T13:38:16;0.80;99.90
21762;DHT22;11203;50.870;20.682;2023-04-06T13:40:42;0.80;99.90
21762;DHT22;11203;50.870;20.682;2023-04-06T13:43:09;0.80;99.90
21762;DHT22;11203;50.870;20.682;2023-04-06T13:45:36;0.80;99.90
21762;DHT22;11203;50.870;20.682;2023-04-06T13:48:02;0.80;99.90
21762;DHT22;11203;50.870;20.682;2023-04-06T13:50:29;0.80;99.90
21762;DHT22;11203;50.870;20.682;2023-04-06T13:52:55;0.80;99.90
21762;DHT22;11203;50.870;20.682;2023-04-06T13:55:22;0.80;99.90
21762;DHT22;11203;50.870;20.682;2023-04-06T13:57:50;0.80;99.90
21762;DHT22;11203;50.870;20.682;2023-04-06T14:00:17;0.80;99.90
21762;DHT22;11203;50.870;20.682;2023-04-06T14:02:45;0.80;99.90
21762;DHT22;11203;50.870;20.682;2023-04-06T14:05:11;0.80;99.90
21762;DHT22;11203;50.870;20.682;2023-04-06T14:07:37;0.80;99.90
21762;DHT22;11203;50.870;20.682;2023-04-06T14:10:04;0.90;99.90
21762;DHT22;11203;50.870;20.682;2023-04-06T14:12:31;0.80;99.90
21762;DHT22;11203;50.870;20.682;2023-04-06T14:14:57;0.90;99.90
21762;DHT22;11203;50.870;20.682;2023-04-06T14:17:23;0.90;99.90
21762;DHT22;11203;50.870;20.682;2023-04-06T14:19:49;0.90;99.90
21762;DHT22;11203;50.870;20.682;2023-04-06T14:22:16;0.90;99.90
21762;DHT22;11203;50.870;20.682;2023-04-06T14:24:43;0.90;99.90
21762;DHT22;11203;50.870;20.682;2023-04-06T14:27:09;1.00;99.90
21762;DHT22;11203;50.870;20.682;2023-04-06T14:29:35;0.90;99.90
21762;DHT22;11203;50.870;20.682;2023-04-06T14:32:01;1.00;99.90
21762;DHT22;11203;50.870;20.682;2023-04-06T14:34:27;1.00;99.90
21762;DHT22;11203;50.870;20.682;2023-04-06T14:36:54;1.00;99.90
21762;DHT22;11203;50.870;20.682;2023-04-06T14:39:21;1.00;99.90
21762;DHT22;11203;50.870;20.682;2023-04-06T14:41:47;1.00;99.90
21762;DHT22;11203;50.870;20.682;2023-04-06T14:44:16;1.00;99.90
21762;DHT22;11203;50.870;20.682;2023-04-06T14:46:42;1.00;99.90
21762;DHT22;11203;50.870;20.682;2023-04-06T14:49:08;1.00;99.90
21762;DHT22;11203;50.870;20.682;2023-04-06T14:51:35;1.00;99.90
21762;DHT22;11203;50.870;20.682;2023-04-06T14:54:01;1.00;99.90
21762;DHT22;11203;50.870;20.682;2023-04-06T14:56:31;1.00;99.90
21762;DHT22;11203;50.870;20.682;2023-04-06T14:58:58;1.00;99.90
21762;DHT22;11203;50.870;20.682;2023-04-06T15:01:24;1.10;99.90
21762;DHT22;11203;50.870;20.682;2023-04-06T15:03:50;1.10;99.90
21762;DHT22;11203;50.870;20.682;2023-04-06T15:06:18;1.10;99.90
21762;DHT22;11203;50.870;20.682;2023-04-06T15:08:46;1.10;99.90
21762;DHT22;11203;50.870;20.682;2023-04-06T15:11:13;1.00;99.90
21762;DHT22;11203;50.870;20.682;2023-04-06T15:13:40;1.00;99.90
21762;DHT22;11203;50.870;20.682;2023-04-06T15:16:07;1.10;99.90
21762;DHT22;11203;50.870;20.682;2023-04-06T15:18:34;1.00;99.90
21762;DHT22;11203;50.870;20.682;2023-04-06T15:21:01;1.00;99.90
21762;DHT22;11203;50.870;20.682;2023-04-06T15:23:28;1.00;99.90
21762;DHT22;11203;50.870;20.682;2023-04-06T15:25:57;1.00;99.90
21762;DHT22;11203;50.870;20.682;2023-04-06T15:28:24;1.00;99.90
21762;DHT22;11203;50.870;20.682;2023-04-06T15:30:50;1.10;99.90
21762;DHT22;11203;50.870;20.682;2023-04-06T15:33:17;1.10;99.90
21762;DHT22;11203;50.870;20.682;2023-04-06T15:35:46;1.10;99.90
21762;DHT22;11203;50.870;20.682;2023-04-06T15:38:12;1.10;99.90
21762;DHT22;11203;50.870;20.682;2023-04-06T15:40:47;1.10;99.90
21762;DHT22;11203;50.870;20.682;2023-04-06T15:43:15;1.10;99.90